Time;durP1;ratioP1;P1;durP2;ratioP2;P2;SDS_P1;SDS_P2;PMS_P1;PMS_P2;Temp;Humidity;BMP_temperature;BMP_pressure;BME280_temperature;BME280_humidity;BME280_pressure;Samples;Min_cycle;Max_cycle;Signal;HPM_P1;HPM_P2
2022/09/20 00:00:26;;;;;;;;;2.00;2.00;;;;;13.83;53.07;101797.53;5093840;27;45481;-59
2022/09/20 00:02:52;;;;;;;;;1.00;1.00;;;;;13.79;53.62;101792.41;5108556;27;45200;-59
2022/09/20 00:05:17;;;;;;;;;5.67;2.00;;;;;13.80;53.47;101795.03;5123001;27;45438;-64
2022/09/20 00:07:44;;;;;;;;;0.00;0.00;;;;;13.71;53.76;101790.13;5092034;27;46086;-61
2022/09/20 00:10:10;;;;;;;;;4.00;2.00;;;;;13.75;53.63;101801.53;5096614;27;45467;-62
2022/09/20 00:12:36;;;;;;;;;0.00;0.00;;;;;13.66;53.92;101791.28;5099311;27;45594;-61
2022/09/20 00:15:02;;;;;;;;;2.67;2.00;;;;;13.62;54.19;101789.72;5095747;27;45662;-60
2022/09/20 00:17:27;;;;;;;;;1.00;0.67;;;;;13.63;53.83;101796.78;5095848;27;45342;-61
2022/09/20 00:19:53;;;;;;;;;2.00;1.33;;;;;13.61;53.58;101804.03;5082304;27;45434;-57
2022/09/20 00:22:18;;;;;;;;;1.00;1.00;;;;;13.56;53.80;101797.13;5109531;27;45417;-59
2022/09/20 00:24:44;;;;;;;;;1.00;1.00;;;;;13.63;53.42;101794.13;5081615;27;45456;-61
2022/09/20 00:27:10;;;;;;;;;1.00;1.00;;;;;13.65;53.68;101795.78;5138209;27;47404;-60
2022/09/20 00:29:35;;;;;;;;;2.00;2.00;;;;;13.66;53.15;101791.28;5083528;27;45491;-60
2022/09/20 00:32:01;;;;;;;;;3.00;2.00;;;;;13.67;53.63;101796.59;5102738;27;45408;-60
2022/09/20 00:37:10;;;;;;;;;1.00;1.00;;;;;13.58;53.86;101783.66;5095238;27;45676;-59
2022/09/20 00:39:35;;;;;;;;;1.00;1.00;;;;;13.61;54.03;101798.69;5089088;27;45500;-60
2022/09/20 00:42:01;;;;;;;;;2.67;2.67;;;;;13.64;53.92;101790.50;5098259;27;45538;-63
2022/09/20 00:44:43;;;;;;;;;2.67;1.00;;;;;13.64;53.31;101791.38;5098445;27;45601;-57
2022/09/20 00:47:36;;;;;;;;;1.00;1.00;;;;;13.59;53.75;101780.06;5112042;27;45380;-60
2022/09/20 00:50:24;;;;;;;;;5.67;2.33;;;;;13.65;53.50;101787.75;5100521;27;45412;-62
2022/09/20 00:53:01;;;;;;;;;2.00;2.00;;;;;13.60;54.06;101780.91;5095149;27;45374;-58
2022/09/20 00:55:27;;;;;;;;;2.00;2.00;;;;;13.61;54.54;101788.00;5092995;27;45234;-59
2022/09/20 00:57:53;;;;;;;;;1.00;1.00;;;;;13.55;54.58;101778.50;5102141;27;45512;-61
2022/09/20 01:00:19;;;;;;;;;4.00;1.33;;;;;13.58;54.65;101789.00;5115887;27;45586;-62
2022/09/20 01:02:50;;;;;;;;;2.00;2.00;;;;;13.55;54.99;101794.53;5093113;27;45268;-59
2022/09/20 01:05:17;;;;;;;;;2.00;2.00;;;;;13.55;54.64;101790.03;5090752;27;45454;-60
2022/09/20 01:07:46;;;;;;;;;2.67;2.67;;;;;13.54;54.42;101782.06;5086365;27;45426;-62
2022/09/20 01:10:11;;;;;;;;;2.33;2.33;;;;;13.54;54.97;101788.31;5096369;27;45920;-61
2022/09/20 01:12:39;;;;;;;;;2.67;2.67;;;;;13.49;54.57;101779.63;5102551;27;45358;-62
2022/09/20 01:15:08;;;;;;;;;1.33;1.33;;;;;13.50;54.88;101786.72;5097605;27;45636;-60
2022/09/20 01:17:38;;;;;;;;;2.00;2.00;;;;;13.52;54.63;101795.50;5079377;27;45385;-60
2022/09/20 01:20:10;;;;;;;;;4.00;3.00;;;;;13.46;55.76;101794.97;5081886;27;45321;-60
2022/09/20 01:22:57;;;;;;;;;2.00;2.00;;;;;13.43;55.07;101790.63;5087224;27;45429;-59
2022/09/20 01:25:59;;;;;;;;;5.00;2.67;;;;;13.43;54.88;101777.28;5096099;27;46000;-61
2022/09/20 01:28:27;;;;;;;;;4.00;2.00;;;;;13.39;55.59;101775.69;5084997;27;46339;-62
2022/09/20 01:31:22;;;;;;;;;2.67;2.00;;;;;13.35;55.17;101775.91;5102107;27;46513;-61
2022/09/20 01:33:57;;;;;;;;;2.33;2.00;;;;;13.28;54.86;101765.53;5112899;27;45616;-60
2022/09/20 01:36:33;;;;;;;;;1.33;1.33;;;;;13.41;55.30;101778.28;5099903;27;45472;-59
2022/09/20 01:39:24;;;;;;;;;2.00;2.00;;;;;13.39;55.55;101773.00;5099005;27;45758;-60
2022/09/20 01:41:52;;;;;;;;;1.00;1.00;;;;;13.38;55.38;101781.97;5109806;27;45326;-62
2022/09/20 01:44:30;;;;;;;;;3.00;3.00;;;;;13.37;55.04;101784.72;5105341;27;45444;-60
2022/09/20 01:47:04;;;;;;;;;2.67;2.00;;;;;13.36;55.41;101786.53;5110222;27;45353;-61
2022/09/20 01:50:08;;;;;;;;;3.00;2.33;;;;;13.34;55.17;101783.06;5100638;27;45995;-61
2022/09/20 01:52:47;;;;;;;;;2.00;2.00;;;;;13.33;55.40;101777.81;5096672;27;45991;-57
2022/09/20 01:55:21;;;;;;;;;4.00;3.00;;;;;13.35;55.25;101771.44;5087704;27;45443;-57
2022/09/20 01:58:05;;;;;;;;;2.00;2.00;;;;;13.32;55.30;101771.59;5078025;27;45595;-61
2022/09/20 02:01:00;;;;;;;;;2.00;2.00;;;;;13.32;54.99;101760.03;5089214;27;45390;-61
2022/09/20 02:03:44;;;;;;;;;2.33;2.00;;;;;13.31;54.83;101753.84;5105764;27;45459;-62
2022/09/20 02:06:24;;;;;;;;;2.00;2.00;;;;;13.31;55.41;101766.31;5112751;27;45738;-61
2022/09/20 02:09:13;;;;;;;;;2.67;2.67;;;;;13.23;56.79;101772.88;5114841;27;45353;-61
2022/09/20 02:12:12;;;;;;;;;3.00;3.00;;;;;13.12;56.99;101774.31;5098216;27;45655;-61
2022/09/20 02:15:13;;;;;;;;;4.00;3.00;;;;;13.12;57.07;101775.19;5089106;27;45398;-57
2022/09/20 02:18:11;;;;;;;;;2.00;2.00;;;;;13.17;56.43;101769.63;5086070;27;45223;-60
2022/09/20 02:20:51;;;;;;;;;3.00;3.00;;;;;13.06;56.63;101774.63;5108507;27;45281;-58
2022/09/20 02:23:27;;;;;;;;;3.50;3.50;;;;;12.99;57.37;101772.22;5096349;27;48356;-57
2022/09/20 02:26:15;;;;;;;;;2.50;2.50;;;;;12.96;56.90;101775.03;5116508;27;45422;-58
2022/09/20 02:28:44;;;;;;;;;3.67;3.00;;;;;12.99;57.14;101769.56;5109073;27;46279;-59
2022/09/20 02:31:35;;;;;;;;;3.00;3.00;;;;;12.92;57.24;101768.13;5077607;27;45443;-60
2022/09/20 02:34:31;;;;;;;;;3.75;3.75;;;;;12.88;57.53;101785.22;5078256;27;45493;-60
2022/09/20 02:37:29;;;;;;;;;6.25;3.00;;;;;12.86;56.97;101779.06;5096099;27;45601;-61
2022/09/20 02:40:06;;;;;;;;;2.00;2.00;;;;;12.83;58.05;101778.38;5093378;27;45500;-59
2022/09/20 02:42:58;;;;;;;;;3.67;3.00;;;;;12.80;57.52;101774.03;5098231;27;45320;-61
2022/09/20 02:45:55;;;;;;;;;3.00;3.00;;;;;12.71;57.55;101779.78;5077506;27;45612;-58
2022/09/20 02:48:29;;;;;;;;;3.00;3.00;;;;;12.63;57.92;101779.25;5093222;27;45423;-60
2022/09/20 02:51:17;;;;;;;;;2.00;2.00;;;;;12.62;58.54;101788.22;5109848;27;45479;-64
2022/09/20 02:53:54;;;;;;;;;1.33;1.00;;;;;12.63;57.27;101781.94;5096315;27;45551;-59
2022/09/20 02:57:10;;;;;;;;;3.00;3.00;;;;;12.69;57.65;101779.00;5100896;27;46573;-59
2022/09/20 02:59:53;;;;;;;;;3.33;3.00;;;;;12.66;57.96;101782.69;5043158;28;45341;-58
2022/09/20 03:02:25;;;;;;;;;3.00;3.00;;;;;12.65;58.01;101782.75;5076347;28;45441;-58
2022/09/20 03:05:17;;;;;;;;;3.75;3.00;;;;;12.63;57.51;101777.50;5093265;27;45303;-58
2022/09/20 03:08:22;;;;;;;;;2.00;2.00;;;;;12.63;57.79;101776.59;5076464;27;45500;-63
2022/09/20 03:11:01;;;;;;;;;3.25;3.25;;;;;12.59;58.33;101780.34;5102720;27;45649;-59
2022/09/20 03:13:46;;;;;;;;;5.25;3.00;;;;;12.56;57.92;101776.03;5097759;27;45475;-58
2022/09/20 03:16:40;;;;;;;;;1.00;1.00;;;;;12.54;58.24;101782.38;5109583;27;45415;-61
2022/09/20 03:19:43;;;;;;;;;4.33;2.67;;;;;12.53;58.26;101777.97;5092191;27;46331;-63
2022/09/20 03:22:38;;;;;;;;;3.00;3.00;;;;;12.51;58.24;101783.38;5076618;27;45410;-63
2022/09/20 03:25:29;;;;;;;;;4.33;3.00;;;;;12.53;58.30;101780.66;5086004;27;45617;-59
2022/09/20 03:28:25;;;;;;;;;4.00;4.00;;;;;12.54;58.10;101775.25;5098475;27;45447;-59
2022/09/20 03:31:26;;;;;;;;;6.00;2.00;;;;;12.55;58.25;101776.97;5085934;27;46254;-58
2022/09/20 03:33:57;;;;;;;;;3.33;3.33;;;;;12.55;58.09;101778.78;5028293;28;45386;-58
2022/09/20 03:36:44;;;;;;;;;3.33;3.33;;;;;12.57;58.09;101782.22;5082634;27;45298;-57
2022/09/20 03:39:48;;;;;;;;;3.67;3.00;;;;;12.59;57.99;101777.69;5096770;27;45539;-57
2022/09/20 03:42:18;;;;;;;;;4.00;3.00;;;;;12.63;58.19;101773.94;5096582;27;46264;-61
2022/09/20 03:45:05;;;;;;;;;2.00;2.00;;;;;12.59;58.31;101781.22;5103235;27;45335;-60
2022/09/20 03:48:04;;;;;;;;;3.00;3.00;;;;;12.55;58.29;101776.09;5096144;27;45323;-60
2022/09/20 03:50:32;;;;;;;;;2.00;2.00;;;;;12.54;58.33;101777.03;5096887;27;45768;-60
2022/09/20 03:53:25;;;;;;;;;3.67;3.67;;;;;12.55;58.64;101779.63;5095277;27;46475;-58
2022/09/20 03:56:12;;;;;;;;;1.25;1.00;;;;;12.52;58.27;101774.44;5096004;27;45396;-56
2022/09/20 03:58:56;;;;;;;;;5.25;5.00;;;;;12.56;58.42;101777.81;5101933;27;45453;-58
2022/09/20 04:01:34;;;;;;;;;6.00;3.67;;;;;12.54;58.25;101774.38;5116002;27;45650;-59
2022/09/20 04:04:24;;;;;;;;;4.00;4.00;;;;;12.54;58.10;101777.03;5104325;27;45376;-60
2022/09/20 04:07:02;;;;;;;;;3.50;3.50;;;;;12.54;58.62;101782.38;5089669;27;45308;-61
2022/09/20 04:09:55;;;;;;;;;6.75;2.75;;;;;12.55;58.58;101776.97;5076088;27;45440;-58
2022/09/20 04:12:38;;;;;;;;;6.75;3.00;;;;;12.55;58.58;101779.63;5079379;27;45412;-60
2022/09/20 04:15:31;;;;;;;;;3.75;3.75;;;;;12.55;58.59;101776.09;5105954;27;46956;-58
2022/09/20 04:17:57;;;;;;;;;4.00;2.50;;;;;12.54;58.71;101779.72;5075877;27;45311;-59
2022/09/20 04:20:37;;;;;;;;;1.25;1.25;;;;;12.48;58.79;101772.81;5117204;27;45204;-65
2022/09/20 04:23:23;;;;;;;;;4.25;3.00;;;;;12.48;58.67;101771.97;5100990;27;45408;-60
2022/09/20 04:25:50;;;;;;;;;4.00;3.25;;;;;12.52;58.79;101781.59;5098643;27;45592;-59
2022/09/20 04:28:33;;;;;;;;;3.67;3.67;;;;;12.42;58.95;101775.78;5078936;27;45329;-59
2022/09/20 04:31:08;;;;;;;;;8.00;4.00;;;;;12.43;59.40;101784.66;5111032;27;45510;-60
2022/09/20 04:33:42;;;;;;;;;2.00;2.00;;;;;12.35;59.53;101782.31;5098403;27;45281;-59
2022/09/20 04:36:30;;;;;;;;;5.00;5.00;;;;;12.37;59.12;101780.47;5099705;27;46340;-59
2022/09/20 04:39:16;;;;;;;;;4.00;4.00;;;;;12.39;59.04;101782.13;5099686;27;45332;-58
2022/09/20 04:41:59;;;;;;;;;6.00;3.00;;;;;12.39;58.84;101783.94;5096531;27;45388;-66
2022/09/20 04:44:51;;;;;;;;;5.67;4.00;;;;;12.40;59.32;101791.88;5098044;27;45217;-57
2022/09/20 04:47:51;;;;;;;;;4.00;3.00;;;;;12.38;59.58;101792.88;5100464;27;46158;-56
2022/09/20 04:50:22;;;;;;;;;4.00;3.00;;;;;12.39;59.12;101795.47;5095778;27;45355;-59
2022/09/20 04:52:57;;;;;;;;;3.00;2.00;;;;;12.35;59.72;101779.66;5083279;27;45809;-57
2022/09/20 04:55:44;;;;;;;;;4.75;3.00;;;;;12.39;59.26;101798.13;5117910;27;45978;-60
2022/09/20 04:58:13;;;;;;;;;7.00;5.00;;;;;12.40;59.86;101801.66;5099162;27;45350;-60
2022/09/20 05:00:55;;;;;;;;;4.00;4.00;;;;;12.33;60.29;101795.72;5098976;27;45328;-63
2022/09/20 05:03:50;;;;;;;;;3.00;3.00;;;;;12.34;60.38;101796.59;5109002;27;45313;-61
2022/09/20 05:06:31;;;;;;;;;3.25;3.25;;;;;12.30;60.46;101795.88;5119426;27;45486;-57
2022/09/20 05:09:22;;;;;;;;;9.00;5.25;;;;;12.30;60.20;101792.34;5113151;27;45362;-59
2022/09/20 05:12:09;;;;;;;;;4.00;4.00;;;;;12.29;60.16;101794.13;5111305;27;45431;-60
2022/09/20 05:15:05;;;;;;;;;4.00;4.00;;;;;12.34;59.52;101797.47;5098583;27;46398;-61
2022/09/20 05:17:30;;;;;;;;;6.00;2.75;;;;;12.37;59.92;101797.34;5098848;27;45520;-63
2022/09/20 05:20:14;;;;;;;;;4.50;3.00;;;;;12.33;60.13;101795.72;5107962;27;47253;-58
2022/09/20 05:22:46;;;;;;;;;2.75;2.00;;;;;12.33;60.38;101797.53;5116164;27;45609;-59
2022/09/20 05:25:24;;;;;;;;;2.25;2.25;;;;;12.31;61.07;101792.25;5106725;27;45554;-59
2022/09/20 05:27:50;;;;;;;;;6.75;6.00;;;;;12.28;60.30;101791.53;5096204;27;45463;-62
2022/09/20 05:30:29;;;;;;;;;7.00;4.75;;;;;12.31;60.06;101789.59;5108296;27;46022;-58
2022/09/20 05:33:20;;;;;;;;;5.75;3.50;;;;;12.38;59.61;101790.22;5097853;27;46055;-60
2022/09/20 05:36:17;;;;;;;;;3.00;3.00;;;;;12.49;59.29;101795.91;5095877;27;45501;-60
2022/09/20 05:38:55;;;;;;;;;3.50;3.00;;;;;12.55;59.31;101795.66;5094542;27;45484;-58
2022/09/20 05:41:34;;;;;;;;;3.00;3.00;;;;;12.58;59.19;101805.31;5092028;27;46569;-59
2022/09/20 05:44:18;;;;;;;;;2.50;2.50;;;;;12.62;59.35;101801.56;5093711;27;45657;-59
2022/09/20 05:47:10;;;;;;;;;5.75;5.75;;;;;12.68;58.97;101801.28;5113423;27;45368;-59
2022/09/20 05:49:57;;;;;;;;;3.00;3.00;;;;;12.74;58.47;101803.66;5082018;27;45240;-58
2022/09/20 05:52:32;;;;;;;;;4.75;3.25;;;;;12.80;58.28;101807.88;5097547;27;45278;-58
2022/09/20 05:55:12;;;;;;;;;3.00;3.00;;;;;12.84;58.23;101812.13;5086477;27;45242;-56
2022/09/20 05:58:00;;;;;;;;;5.50;5.50;;;;;12.89;58.43;101810.09;5103614;27;45468;-59
2022/09/20 06:00:31;;;;;;;;;4.00;4.00;;;;;12.92;58.60;101810.84;5093636;27;45554;-60
2022/09/20 06:03:03;;;;;;;;;6.75;5.75;;;;;12.97;58.19;101803.47;5085161;27;46523;-68
2022/09/20 06:05:44;;;;;;;;;7.75;6.50;;;;;12.99;58.10;101817.63;5079480;27;47379;-59
2022/09/20 06:08:32;;;;;;;;;4.00;4.00;;;;;13.02;58.44;101821.06;5095621;27;45256;-60
2022/09/20 06:11:34;;;;;;;;;8.75;7.50;;;;;13.00;58.73;101822.03;5096673;27;45716;-62
2022/09/20 06:14:43;;;;;;;;;7.00;5.25;;;;;13.10;58.26;101818.94;5104687;27;45524;-57
2022/09/20 06:17:27;;;;;;;;;4.00;4.00;;;;;13.13;58.33;101826.78;5036976;28;45513;-57
2022/09/20 06:20:20;;;;;;;;;5.25;5.25;;;;;13.12;58.34;101817.03;5095254;27;45684;-58
2022/09/20 06:22:53;;;;;;;;;4.25;4.25;;;;;13.16;58.18;101815.97;5104033;27;46160;-57
2022/09/20 06:25:30;;;;;;;;;5.50;5.25;;;;;13.22;57.69;101823.72;5116340;27;47466;-59
2022/09/20 06:28:18;;;;;;;;;6.00;4.00;;;;;13.27;58.11;101822.56;5117048;27;45347;-57
2022/09/20 06:30:53;;;;;;;;;5.33;5.33;;;;;13.33;57.62;101824.09;5069286;27;45463;-59
2022/09/20 06:33:29;;;;;;;;;4.33;4.33;;;;;13.35;57.31;101830.22;5090564;27;45242;-58
2022/09/20 06:41:25;;;;;;;;;6.50;6.50;;;;;13.41;57.72;101840.63;5096473;27;46331;-58
2022/09/20 06:41:38;;;;;;;;;7.00;7.00;;;;;13.31;57.92;101827.78;5064656;27;45701;-58
2022/09/20 06:44:04;;;;;;;;;13.00;12.75;;;;;13.37;57.94;101831.00;5077013;27;45618;-57
2022/09/20 06:46:34;;;;;;;;;6.33;6.33;;;;;13.35;58.10;101843.56;5076523;27;47180;-57
2022/09/20 06:49:01;;;;;;;;;7.75;6.00;;;;;13.36;58.40;101847.97;5075894;27;45549;-59
2022/09/20 06:51:32;;;;;;;;;4.00;4.00;;;;;13.42;57.54;101847.69;5076576;27;45405;-56
2022/09/20 06:53:58;;;;;;;;;4.50;4.00;;;;;13.32;57.67;101846.41;5077278;27;45286;-61
2022/09/20 06:56:28;;;;;;;;;10.00;5.00;;;;;13.21;58.41;101846.91;5053955;27;46316;-57
2022/09/20 06:58:54;;;;;;;;;5.25;5.25;;;;;13.16;58.75;101851.56;5077734;27;45430;-59
2022/09/20 07:01:20;;;;;;;;;8.67;5.00;;;;;13.13;57.83;101824.13;5077645;27;45315;-58
2022/09/20 07:03:46;;;;;;;;;5.67;5.67;;;;;13.31;57.57;101836.66;5078832;27;45246;-58
2022/09/20 07:06:11;;;;;;;;;10.25;7.00;;;;;13.34;57.81;101844.53;5077259;27;45652;-57
2022/09/20 07:08:38;;;;;;;;;5.00;5.00;;;;;13.30;58.35;101848.28;5077473;27;45354;-58
2022/09/20 07:11:10;;;;;;;;;9.00;5.00;;;;;13.27;58.07;101848.41;5088756;27;45295;-59
2022/09/20 07:13:36;;;;;;;;;8.00;6.50;;;;;13.12;58.07;101833.94;5097325;27;45176;-56
2022/09/20 07:16:06;;;;;;;;;4.33;4.33;;;;;13.10;58.02;101850.97;5096783;27;45412;-60
2022/09/20 07:18:32;;;;;;;;;9.25;4.00;;;;;13.02;58.61;101845.13;5096911;27;45425;-63
2022/09/20 07:21:01;;;;;;;;;4.00;4.00;;;;;13.05;58.34;101847.66;5097305;27;45477;-58
2022/09/20 07:23:30;;;;;;;;;7.75;5.25;;;;;13.13;58.33;101850.81;5097282;27;45507;-64
2022/09/20 07:25:59;;;;;;;;;7.00;4.33;;;;;13.05;58.54;101864.56;5095713;27;46342;-59
2022/09/20 07:28:28;;;;;;;;;7.00;5.00;;;;;13.06;58.65;101862.75;5097162;27;45370;-60
2022/09/20 07:30:54;;;;;;;;;4.00;4.00;;;;;12.93;59.09;101875.78;5096903;27;45393;-58
2022/09/20 07:33:20;;;;;;;;;7.33;6.67;;;;;12.86;59.19;101877.88;5096133;27;45684;-57
2022/09/20 07:35:52;;;;;;;;;9.00;7.33;;;;;12.94;59.30;101878.41;5112640;27;47195;-57
2022/09/20 07:38:18;;;;;;;;;5.33;5.33;;;;;13.04;58.46;101867.31;5096944;27;45428;-56
2022/09/20 07:40:46;;;;;;;;;2.00;2.00;;;;;13.15;58.36;101870.31;5095735;27;45346;-57
2022/09/20 07:43:12;;;;;;;;;7.00;5.25;;;;;13.25;58.10;101877.88;5094488;27;45995;-58
2022/09/20 07:45:38;;;;;;;;;8.00;8.00;;;;;13.23;58.01;101878.88;5096440;27;45831;-57
2022/09/20 07:48:08;;;;;;;;;4.00;4.00;;;;;13.20;57.96;101882.56;5097011;27;45457;-57
2022/09/20 07:50:34;;;;;;;;;6.67;4.67;;;;;13.28;58.19;101877.75;5096775;27;45373;-55
2022/09/20 07:53:00;;;;;;;;;8.33;7.00;;;;;13.26;58.03;101884.06;5097434;27;45492;-60
2022/09/20 07:55:25;;;;;;;;;8.67;7.00;;;;;13.33;57.93;101893.56;5103227;27;45461;-61
2022/09/20 07:57:53;;;;;;;;;8.33;5.33;;;;;13.43;57.73;101881.50;5103657;27;45459;-61
2022/09/20 08:00:18;;;;;;;;;9.33;8.67;;;;;13.49;57.86;101874.97;5102854;27;45313;-59
2022/09/20 08:02:44;;;;;;;;;10.00;7.00;;;;;13.61;57.88;101882.41;5103809;27;45499;-57
2022/09/20 08:05:09;;;;;;;;;8.67;6.33;;;;;13.61;57.44;101877.06;5102025;27;45388;-59
2022/09/20 08:07:35;;;;;;;;;9.00;7.33;;;;;13.73;57.02;101880.97;5103370;27;45368;-57
2022/09/20 08:10:01;;;;;;;;;7.00;7.00;;;;;13.75;57.67;101889.75;5103542;27;45334;-60
2022/09/20 08:12:27;;;;;;;;;9.67;6.33;;;;;13.82;56.95;101884.06;5080416;27;45415;-59
2022/09/20 08:14:52;;;;;;;;;9.00;8.00;;;;;13.88;56.89;101885.56;5101932;27;46475;-58
2022/09/20 08:17:18;;;;;;;;;8.00;8.00;;;;;13.90;57.09;101891.69;5103345;27;45321;-58
2022/09/20 08:19:44;;;;;;;;;7.00;5.00;;;;;13.98;57.03;101891.31;5100821;27;46140;-62
2022/09/20 08:22:11;;;;;;;;;8.33;7.33;;;;;14.08;56.89;101890.78;5103353;27;45464;-57
2022/09/20 08:24:39;;;;;;;;;9.00;8.00;;;;;14.14;56.46;101889.59;5103337;27;46611;-58
2022/09/20 08:27:04;;;;;;;;;8.33;7.33;;;;;14.21;56.20;101895.53;5103112;27;45443;-59
2022/09/20 08:29:30;;;;;;;;;4.00;4.00;;;;;14.28;56.20;101896.94;5102978;27;45351;-59
2022/09/20 08:31:57;;;;;;;;;5.33;5.33;;;;;14.30;56.76;101892.38;5104374;27;45301;-60
2022/09/20 08:34:23;;;;;;;;;5.67;4.67;;;;;14.34;56.28;101899.31;5108224;27;46712;-57
2022/09/20 08:36:51;;;;;;;;;3.00;3.00;;;;;14.34;56.23;101891.28;5102364;27;45295;-57
2022/09/20 08:39:17;;;;;;;;;11.00;5.00;;;;;14.47;55.75;101899.59;5103041;27;45379;-60
2022/09/20 08:41:50;;;;;;;;;4.00;4.00;;;;;14.53;56.12;101905.47;5102331;27;45628;-56
2022/09/20 08:44:27;;;;;;;;;12.67;6.67;;;;;14.62;55.50;101905.00;5102748;27;45354;-57
2022/09/20 08:47:08;;;;;;;;;6.33;4.67;;;;;14.76;55.32;101906.97;5119376;27;45267;-60
2022/09/20 08:49:35;;;;;;;;;11.00;6.00;;;;;14.87;54.99;101907.25;5102734;27;45394;-61
2022/09/20 08:52:02;;;;;;;;;8.00;5.00;;;;;14.98;54.73;101909.38;5103577;27;45634;-60
2022/09/20 08:54:32;;;;;;;;;4.33;4.33;;;;;15.07;54.60;101906.19;5103760;27;46138;-61
2022/09/20 08:57:04;;;;;;;;;9.00;3.33;;;;;15.08;54.20;101904.38;5103514;27;45336;-60
2022/09/20 08:59:30;;;;;;;;;8.67;3.33;;;;;15.04;54.09;101901.00;5102891;27;45329;-63
2022/09/20 09:01:57;;;;;;;;;3.00;3.00;;;;;15.14;53.83;101898.69;5103655;27;45301;-58
2022/09/20 09:04:30;;;;;;;;;2.67;2.67;;;;;15.30;53.68;101919.19;5103078;27;45283;-62
2022/09/20 09:06:55;;;;;;;;;2.00;2.00;;;;;15.34;53.55;101907.34;5099255;27;45204;-57
2022/09/20 09:09:24;;;;;;;;;2.33;2.33;;;;;15.47;53.67;101917.41;5097867;27;45285;-59
2022/09/20 09:11:52;;;;;;;;;5.33;4.00;;;;;15.59;52.87;101911.34;5097900;27;45390;-61
2022/09/20 09:14:48;;;;;;;;;11.33;5.00;;;;;15.58;53.13;101917.66;5098771;27;45450;-58
2022/09/20 09:17:25;;;;;;;;;3.00;3.00;;;;;15.63;53.26;101924.56;5098927;27;45328;-57
2022/09/20 09:19:56;;;;;;;;;12.00;10.67;;;;;15.67;52.61;101914.50;5097548;27;45298;-59
2022/09/20 09:22:41;;;;;;;;;5.33;4.00;;;;;15.76;52.64;101908.63;5098921;27;45546;-59
2022/09/20 09:25:16;;;;;;;;;4.00;3.00;;;;;15.82;52.34;101915.47;5097535;27;46171;-60
2022/09/20 09:28:06;;;;;;;;;6.00;3.00;;;;;15.84;52.13;101906.38;5098315;27;45416;-60
2022/09/20 09:30:31;;;;;;;;;3.00;3.00;;;;;15.82;52.14;101907.41;5098518;27;45308;-59
2022/09/20 09:33:19;;;;;;;;;4.33;3.00;;;;;15.76;52.47;101914.00;5097932;27;45259;-61
2022/09/20 09:36:03;;;;;;;;;23.67;19.00;;;;;15.78;52.94;101896.00;5077288;27;46721;-61
2022/09/20 09:38:33;;;;;;;;;2.67;2.67;;;;;15.98;52.57;101900.19;5077094;27;45661;-58
2022/09/20 09:41:26;;;;;;;;;7.00;6.67;;;;;16.06;52.24;101911.38;5082821;27;45337;-57
2022/09/20 09:44:03;;;;;;;;;5.33;4.00;;;;;16.13;51.87;101907.34;5091264;27;45800;-59
2022/09/20 09:46:34;;;;;;;;;6.33;4.00;;;;;16.18;51.73;101899.06;5097926;27;45633;-57
2022/09/20 09:49:14;;;;;;;;;3.67;3.33;;;;;16.30;51.47;101903.69;5098857;27;45244;-58
2022/09/20 09:51:43;;;;;;;;;2.00;2.00;;;;;16.39;50.90;101891.53;5098735;27;45381;-61
2022/09/20 09:54:18;;;;;;;;;5.67;4.00;;;;;16.42;50.82;101897.59;5099365;27;46253;-59
2022/09/20 09:56:56;;;;;;;;;9.00;5.33;;;;;16.53;50.47;101899.63;5096964;27;45416;-58
2022/09/20 09:59:44;;;;;;;;;9.00;5.00;;;;;16.59;50.43;101904.63;5098534;27;45426;-57
2022/09/20 10:02:34;;;;;;;;;8.33;5.00;;;;;16.58;50.35;101908.28;5099150;27;45462;-59
2022/09/20 10:05:21;;;;;;;;;5.33;5.00;;;;;16.64;50.43;101901.66;5099305;27;45265;-59
2022/09/20 10:08:20;;;;;;;;;5.00;5.00;;;;;16.64;50.10;101893.59;5098816;27;45336;-59
2022/09/20 10:10:45;;;;;;;;;4.00;4.00;;;;;16.68;50.07;101901.44;5091940;27;45333;-58
2022/09/20 10:13:18;;;;;;;;;10.67;4.67;;;;;16.57;50.02;101871.66;5098029;27;45236;-57
2022/09/20 10:15:54;;;;;;;;;3.00;3.00;;;;;16.79;49.32;101898.06;5097556;27;45363;-61
2022/09/20 10:18:28;;;;;;;;;11.00;6.00;;;;;16.86;49.59;101887.81;5098120;27;45358;-60
2022/09/20 10:21:09;;;;;;;;;7.00;3.00;;;;;16.99;48.83;101896.84;5098562;27;45432;-61
2022/09/20 10:23:47;;;;;;;;;6.00;4.67;;;;;17.03;48.78;101896.56;5096977;27;45508;-59
2022/09/20 10:26:30;;;;;;;;;4.33;3.00;;;;;17.15;49.05;101894.94;5097087;27;45639;-60
2022/09/20 10:29:25;;;;;;;;;6.00;4.00;;;;;17.33;48.76;101890.22;5097999;27;45472;-60
2022/09/20 10:32:12;;;;;;;;;6.00;5.00;;;;;17.43;48.16;101885.97;5096965;27;45653;-59
2022/09/20 10:34:56;;;;;;;;;5.00;5.00;;;;;17.54;48.05;101880.75;5097920;27;45379;-62
2022/09/20 10:37:31;;;;;;;;;6.33;3.33;;;;;17.61;47.10;101876.72;5098253;27;45408;-60
2022/09/20 10:40:21;;;;;;;;;5.00;4.00;;;;;17.81;47.27;101882.66;5097945;27;46217;-60
2022/09/20 10:43:15;;;;;;;;;6.33;3.00;;;;;17.64;46.89;101873.81;5097166;27;45333;-60
2022/09/20 10:46:02;;;;;;;;;4.67;4.00;;;;;17.83;47.26;101888.78;5097709;27;45344;-61
2022/09/20 10:48:54;;;;;;;;;4.00;3.00;;;;;17.98;46.51;101875.19;5097288;27;45220;-61
2022/09/20 10:51:36;;;;;;;;;6.33;3.00;;;;;18.11;46.01;101869.84;5097315;27;45441;-61
2022/09/20 10:54:28;;;;;;;;;5.00;3.67;;;;;18.17;46.45;101872.13;5097066;27;45361;-61
2022/09/20 10:57:27;;;;;;;;;5.33;4.00;;;;;18.35;46.10;101870.00;5098419;27;45376;-61
2022/09/20 11:00:20;;;;;;;;;8.67;4.00;;;;;18.43;45.90;101861.41;5096638;27;45354;-59
2022/09/20 11:02:54;;;;;;;;;5.67;4.00;;;;;18.55;44.48;101872.19;5097943;27;47091;-58
2022/09/20 11:05:19;;;;;;;;;3.67;3.67;;;;;18.66;45.32;101874.19;5096532;27;45311;-60
2022/09/20 11:07:54;;;;;;;;;3.67;3.67;;;;;18.78;44.52;101867.94;5097775;27;45350;-58
2022/09/20 11:10:19;;;;;;;;;4.00;4.00;;;;;18.89;44.89;101869.88;5098009;27;45353;-60
2022/09/20 11:12:54;;;;;;;;;2.67;2.67;;;;;18.93;43.76;101870.50;5097242;27;45339;-57
2022/09/20 11:15:26;;;;;;;;;3.33;3.00;;;;;19.08;44.07;101870.28;5097164;27;45272;-58
2022/09/20 11:18:24;;;;;;;;;8.33;3.00;;;;;19.22;43.92;101863.88;5096250;27;45270;-58
2022/09/20 11:21:28;;;;;;;;;3.00;3.00;;;;;19.27;42.58;101864.44;5092790;27;45392;-60
2022/09/20 11:24:04;;;;;;;;;2.00;2.00;;;;;19.49;43.47;101868.25;5076119;28;45536;-60
2022/09/20 11:26:35;;;;;;;;;2.00;2.00;;;;;19.53;42.75;101856.25;5076662;28;45438;-59
2022/09/20 11:29:25;;;;;;;;;2.33;2.00;;;;;19.56;43.11;101864.16;5073972;28;45342;-59
2022/09/20 11:31:54;;;;;;;;;2.33;2.33;;;;;19.72;42.88;101859.34;5076735;28;45471;-60
2022/09/20 11:35:02;;;;;;;;;3.00;3.00;;;;;19.81;42.11;101861.38;5086496;27;46144;-60
2022/09/20 11:37:35;;;;;;;;;2.00;2.00;;;;;19.94;42.00;101848.69;5059370;27;45364;-61
2022/09/20 11:40:12;;;;;;;;;2.00;1.00;;;;;19.94;42.09;101845.97;5095245;27;46030;-59
2022/09/20 11:42:40;;;;;;;;;3.33;2.33;;;;;19.94;41.74;101831.63;5113445;27;45299;-61
2022/09/20 11:45:10;;;;;;;;;2.33;2.33;;;;;19.87;42.11;101819.53;5097085;27;47226;-59
2022/09/20 11:48:01;;;;;;;;;3.00;3.00;;;;;20.03;42.53;101847.97;5096032;27;45405;-61
2022/09/20 11:50:55;;;;;;;;;3.33;3.33;;;;;20.08;42.02;101849.47;5096188;27;45370;-60
2022/09/20 11:53:32;;;;;;;;;3.33;2.00;;;;;20.02;41.82;101851.63;5097129;27;45498;-59
2022/09/20 11:56:19;;;;;;;;;3.00;3.00;;;;;19.93;42.45;101838.84;5095707;27;45426;-60
2022/09/20 11:58:48;;;;;;;;;0.33;0.00;;;;;20.08;41.93;101853.03;5076466;27;45394;-60
2022/09/20 12:01:24;;;;;;;;;4.00;3.00;;;;;20.09;42.29;101857.44;5075677;27;45381;-58
2022/09/20 12:03:54;;;;;;;;;3.00;2.33;;;;;20.04;42.33;101846.97;5075890;27;45551;-57
2022/09/20 12:06:36;;;;;;;;;6.00;5.00;;;;;20.03;41.88;101855.19;5076378;27;45316;-58
2022/09/20 12:09:13;;;;;;;;;3.00;3.00;;;;;19.61;41.13;101856.59;5076609;27;45258;-58
2022/09/20 12:11:40;;;;;;;;;1.00;1.00;;;;;19.53;41.42;101849.03;5076496;27;45429;-60
2022/09/20 12:14:17;;;;;;;;;4.00;2.67;;;;;19.48;42.58;101855.72;5096909;27;45515;-59
2022/09/20 12:16:45;;;;;;;;;4.67;2.00;;;;;19.55;40.98;101851.66;5094326;27;45615;-61
2022/09/20 12:19:32;;;;;;;;;3.33;2.33;;;;;19.61;41.51;101856.59;5077299;27;45689;-60